Time;durP1;ratioP1;P1;durP2;ratioP2;P2;SDS_P1;SDS_P2;PMS_P1;PMS_P2;Temp;Humidity;BMP_temperature;BMP_pressure;BME280_temperature;BME280_humidity;BME280_pressure;Samples;Min_cycle;Max_cycle;Signal;HPM_P1;HPM_P2
2023/01/31 00:02:02;;;;;;;2.33;1.40;;;;;;;13.75;44.13;99865.69;5112419;28;20039;-61
2023/01/31 00:04:30;;;;;;;2.35;1.35;;;;;;;13.69;44.16;99848.25;5112271;28;20112;-60
2023/01/31 00:06:59;;;;;;;2.13;1.30;;;;;;;13.70;44.08;99843.72;5112316;28;20472;-60
2023/01/31 00:09:27;;;;;;;1.83;1.23;;;;;;;13.68;44.21;99849.22;5093952;28;20591;-60
2023/01/31 00:11:55;;;;;;;2.13;1.35;;;;;;;13.64;44.10;99842.41;5112157;28;20047;-61
2023/01/31 00:14:24;;;;;;;2.05;1.30;;;;;;;13.62;44.17;99860.44;5112189;28;20048;-61
2023/01/31 00:16:52;;;;;;;1.50;1.05;;;;;;;13.58;44.15;99845.56;5112226;28;20046;-61
2023/01/31 00:19:21;;;;;;;1.95;1.25;;;;;;;13.56;44.26;99855.56;5112240;28;20116;-60
2023/01/31 00:21:49;;;;;;;2.38;1.33;;;;;;;13.54;44.46;99856.66;5112220;28;20063;-61
2023/01/31 00:24:18;;;;;;;1.75;1.23;;;;;;;13.52;44.35;99850.56;5112205;28;20504;-61
2023/01/31 00:26:47;;;;;;;2.33;1.45;;;;;;;13.49;44.51;99859.69;5112109;28;20048;-59
2023/01/31 00:29:15;;;;;;;2.28;1.40;;;;;;;13.46;44.42;99866.16;5112236;28;20044;-61
2023/01/31 00:31:43;;;;;;;2.83;1.50;;;;;;;13.45;44.45;99859.09;5112043;28;20097;-60
2023/01/31 00:34:12;;;;;;;2.20;1.25;;;;;;;13.42;44.44;99837.91;5094201;28;20050;-60
2023/01/31 00:36:43;;;;;;;1.88;1.13;;;;;;;13.40;44.59;99833.63;5112080;28;20054;-60
2023/01/31 00:39:11;;;;;;;2.30;1.33;;;;;;;13.33;44.79;99819.03;5094779;28;20122;-61
2023/01/31 00:41:41;;;;;;;2.83;1.40;;;;;;;13.35;44.57;99822.44;5112032;28;20051;-60
2023/01/31 00:44:09;;;;;;;2.30;1.30;;;;;;;13.33;44.57;99835.94;5111988;28;20114;-62
2023/01/31 00:46:37;;;;;;;2.95;1.25;;;;;;;13.28;44.53;99823.88;5111990;28;20553;-59
2023/01/31 00:49:06;;;;;;;2.67;1.20;;;;;;;13.25;44.46;99826.78;5111971;28;20056;-60
2023/01/31 00:51:34;;;;;;;2.58;1.30;;;;;;;13.26;44.74;99828.50;5111829;28;20039;-60
2023/01/31 00:54:02;;;;;;;2.83;1.50;;;;;;;13.24;44.71;99828.63;5111921;28;20459;-60
2023/01/31 00:56:31;;;;;;;2.38;1.30;;;;;;;13.23;44.72;99839.47;5111914;28;20123;-60
2023/01/31 00:59:03;;;;;;;2.38;1.20;;;;;;;13.18;44.90;99827.22;5111854;28;20067;-61
2023/01/31 01:01:31;;;;;;;1.70;1.00;;;;;;;13.17;45.01;99828.19;5111873;28;20048;-60
2023/01/31 01:04:00;;;;;;;2.38;1.30;;;;;;;13.16;44.90;99823.81;5111806;28;20135;-60
2023/01/31 01:06:29;;;;;;;2.17;1.30;;;;;;;13.14;44.99;99828.44;5112568;28;20584;-60
2023/01/31 01:08:58;;;;;;;1.70;1.02;;;;;;;13.09;45.05;99822.59;5115524;28;20051;-61
2023/01/31 01:11:29;;;;;;;2.40;1.23;;;;;;;13.09;45.06;99827.94;5115423;28;20058;-61
2023/01/31 01:13:59;;;;;;;2.10;1.20;;;;;;;13.07;44.65;99815.66;5115630;28;20047;-60
2023/01/31 01:16:32;;;;;;;2.28;1.30;;;;;;;13.07;45.10;99821.84;5115374;28;20122;-61
2023/01/31 01:19:07;;;;;;;1.45;0.93;;;;;;;13.04;45.11;99832.81;5115484;28;20123;-61
2023/01/31 01:21:38;;;;;;;2.42;1.23;;;;;;;13.04;45.12;99834.63;5114937;28;20050;-60
2023/01/31 01:24:08;;;;;;;1.85;1.20;;;;;;;13.00;45.19;99823.28;5115405;28;20044;-59
2023/01/31 01:26:36;;;;;;;2.45;1.20;;;;;;;13.00;45.38;99825.13;5115282;28;20043;-59
2023/01/31 01:29:05;;;;;;;2.40;1.17;;;;;;;12.97;45.19;99823.53;5115150;28;20047;-58
2023/01/31 01:31:34;;;;;;;2.35;1.35;;;;;;;12.95;45.26;99817.44;5115122;28;20488;-60
2023/01/31 01:34:06;;;;;;;1.67;0.95;;;;;;;12.93;45.25;99824.72;5115268;28;20048;-59
2023/01/31 01:36:35;;;;;;;2.10;1.10;;;;;;;12.94;45.29;99836.31;5114752;28;20079;-60
2023/01/31 01:39:05;;;;;;;2.03;1.08;;;;;;;12.90;45.37;99831.19;5115041;28;20096;-60
2023/01/31 01:41:33;;;;;;;2.25;1.00;;;;;;;12.89;45.43;99844.69;5114853;28;20053;-58
2023/01/31 01:44:04;;;;;;;1.73;0.98;;;;;;;12.87;45.42;99847.47;5114951;28;20043;-59
2023/01/31 01:46:39;;;;;;;1.67;1.00;;;;;;;12.81;45.38;99842.56;5114931;28;20087;-61
2023/01/31 01:49:16;;;;;;;2.72;1.10;;;;;;;12.83;45.49;99845.13;5114835;28;20040;-60
2023/01/31 01:51:47;;;;;;;1.42;1.00;;;;;;;12.81;45.46;99847.94;5114745;28;20051;-61
2023/01/31 01:54:19;;;;;;;2.00;1.10;;;;;;;12.80;45.64;99845.38;5114581;28;20043;-59
2023/01/31 01:56:53;;;;;;;2.45;1.20;;;;;;;12.78;45.68;99847.31;5114782;28;20044;-60
2023/01/31 01:59:26;;;;;;;1.40;0.88;;;;;;;12.76;45.46;99854.63;5114560;28;20519;-59
2023/01/31 02:01:57;;;;;;;2.75;1.27;;;;;;;12.74;45.65;99853.84;5114595;28;20073;-59
2023/01/31 02:04:28;;;;;;;3.40;1.10;;;;;;;12.72;45.66;99871.84;5114552;28;20043;-59
2023/01/31 02:06:59;;;;;;;1.50;1.00;;;;;;;12.70;45.65;99879.16;5114417;28;20046;-59
2023/01/31 02:09:34;;;;;;;2.00;1.17;;;;;;;12.68;45.82;99863.22;5114443;28;20064;-59
2023/01/31 02:12:03;;;;;;;2.67;1.20;;;;;;;12.67;45.72;99871.38;5114555;28;20070;-59
2023/01/31 02:14:31;;;;;;;1.65;1.00;;;;;;;12.64;45.64;99876.94;5114357;28;20086;-59
2023/01/31 02:17:01;;;;;;;1.73;1.00;;;;;;;12.63;45.71;99896.63;5114219;28;20430;-59
2023/01/31 02:19:38;;;;;;;2.10;1.10;;;;;;;12.57;45.88;99893.44;5113708;28;20053;-60
2023/01/31 02:22:22;;;;;;;1.98;1.05;;;;;;;12.57;45.96;99893.44;5114145;28;20048;-61
2023/01/31 02:25:24;;;;;;;2.00;1.00;;;;;;;12.55;45.83;99903.41;5114183;28;20044;-60
2023/01/31 02:28:26;;;;;;;1.55;0.85;;;;;;;12.53;46.02;99891.09;5114152;28;20044;-60
2023/01/31 02:31:48;;;;;;;2.92;1.10;;;;;;;12.50;45.79;99902.03;5099263;28;20062;-58
2023/01/31 02:34:26;;;;;;;2.90;1.00;;;;;;;12.49;45.88;99894.97;5051042;28;20055;-60
2023/01/31 02:37:07;;;;;;;1.23;0.88;;;;;;;12.47;45.76;99887.06;5113756;28;20043;-61
2023/01/31 02:39:43;;;;;;;1.85;1.10;;;;;;;12.43;45.84;99882.91;5113927;28;20484;-59
2023/01/31 02:42:21;;;;;;;2.75;1.20;;;;;;;12.42;46.10;99894.56;5113862;28;20039;-58
2023/01/31 02:45:01;;;;;;;1.65;1.10;;;;;;;12.39;46.20;99878.75;5113846;28;20047;-60
2023/01/31 02:47:42;;;;;;;2.15;0.95;;;;;;;12.39;45.98;99889.47;5113862;28;20424;-60
2023/01/31 02:50:17;;;;;;;1.88;0.98;;;;;;;12.37;46.08;99879.84;5113756;28;20048;-60
2023/01/31 02:52:50;;;;;;;2.08;1.00;;;;;;;12.35;45.99;99895.97;5113468;28;20062;-60
2023/01/31 02:58:14;;;;;;;1.55;0.85;;;;;;;12.31;46.03;99915.91;5113616;28;20081;-59
2023/01/31 03:00:46;;;;;;;2.25;1.02;;;;;;;12.26;46.27;99910.06;5113572;28;20053;-59
2023/01/31 03:03:21;;;;;;;2.38;0.90;;;;;;;12.25;46.14;99911.00;5113420;28;20445;-59
2023/01/31 03:06:26;;;;;;;2.85;1.13;;;;;;;12.24;46.24;99928.00;5113495;28;20047;-58
2023/01/31 03:09:02;;;;;;;1.35;0.70;;;;;;;12.21;46.27;99922.88;5112279;28;20134;-58
2023/01/31 03:11:40;;;;;;;1.67;0.95;;;;;;;12.19;46.25;99919.47;5113057;28;20047;-60
2023/01/31 03:14:22;;;;;;;2.88;1.27;;;;;;;12.17;46.28;99932.09;5113133;28;20050;-58
2023/01/31 03:19:48;;;;;;;3.00;1.00;;;;;;;12.12;46.28;99929.75;5113206;28;20044;-59
2023/01/31 03:22:23;;;;;;;1.95;1.00;;;;;;;12.11;46.29;99937.88;5113099;28;20118;-61
2023/01/31 03:24:54;;;;;;;1.55;0.73;;;;;;;12.10;46.44;99946.88;5113001;28;20067;-59
2023/01/31 03:27:22;;;;;;;2.08;0.98;;;;;;;12.03;46.31;99935.75;5112918;28;20044;-58
2023/01/31 03:29:53;;;;;;;3.05;1.10;;;;;;;12.03;46.23;99936.59;5112106;28;20058;-58
2023/01/31 03:32:26;;;;;;;1.58;0.88;;;;;;;12.03;46.53;99947.28;5112728;28;20046;-60
2023/01/31 03:34:55;;;;;;;2.60;1.15;;;;;;;12.00;46.43;99944.84;5112769;28;20122;-60
2023/01/31 03:37:31;;;;;;;2.53;0.93;;;;;;;12.02;46.43;99950.94;5112814;28;20048;-60
2023/01/31 03:40:05;;;;;;;1.70;0.77;;;;;;;12.02;46.69;99961.63;5112712;28;20050;-60
2023/01/31 03:42:42;;;;;;;2.20;1.00;;;;;;;12.05;46.75;99957.88;5112866;28;20089;-60
2023/01/31 03:45:15;;;;;;;2.63;1.00;;;;;;;12.12;46.90;99969.84;5112620;28;20040;-60
2023/01/31 03:47:47;;;;;;;1.58;0.80;;;;;;;12.18;46.94;99955.19;5112683;28;20039;-60
2023/01/31 03:50:20;;;;;;;2.03;1.02;;;;;;;12.31;46.91;99961.38;5112550;28;20051;-60
2023/01/31 03:52:54;;;;;;;2.58;0.88;;;;;;;12.46;46.98;99984.34;5112567;28;20050;-60
2023/01/31 03:55:31;;;;;;;1.83;1.08;;;;;;;12.57;46.80;99978.22;5112435;28;20078;-58
2023/01/31 03:58:02;;;;;;;2.22;0.90;;;;;;;12.70;46.82;99980.84;5112549;28;20043;-58
2023/01/31 04:00:33;;;;;;;2.45;0.90;;;;;;;12.78;46.73;99978.47;5112793;28;20118;-61
2023/01/31 04:03:10;;;;;;;1.08;0.65;;;;;;;12.92;46.56;99977.44;5112662;28;20051;-59
2023/01/31 04:05:39;;;;;;;2.50;0.82;;;;;;;13.00;46.42;99980.41;5112346;28;20457;-61
2023/01/31 04:08:08;;;;;;;3.13;1.00;;;;;;;13.05;46.33;99968.38;5112280;28;20438;-60
2023/01/31 04:10:38;;;;;;;1.55;0.80;;;;;;;13.08;46.32;99978.84;5112145;28;20446;-60
2023/01/31 04:13:06;;;;;;;3.15;0.85;;;;;;;13.09;46.13;99985.91;5112279;28;20126;-59
2023/01/31 04:15:34;;;;;;;4.28;0.90;;;;;;;13.11;46.18;99978.63;5112188;28;20054;-60
2023/01/31 04:18:02;;;;;;;1.27;0.70;;;;;;;13.11;46.11;99989.34;5112310;28;20047;-61
2023/01/31 04:20:31;;;;;;;1.75;0.77;;;;;;;13.11;46.21;99993.84;5112192;28;20071;-61
2023/01/31 04:22:59;;;;;;;2.13;0.80;;;;;;;13.10;46.10;99997.47;5112700;28;20127;-61
2023/01/31 04:25:27;;;;;;;1.50;0.73;;;;;;;13.08;46.20;99994.94;5112098;28;20046;-61
2023/01/31 04:28:00;;;;;;;2.22;0.77;;;;;;;13.06;46.37;100001.38;5112167;28;20548;-60
2023/01/31 04:30:30;;;;;;;2.38;1.27;;;;;;;13.04;46.03;99990.78;5112198;28;20651;-60
2023/01/31 04:32:58;;;;;;;1.35;0.88;;;;;;;13.01;46.24;100001.69;5111969;28;20051;-60
2023/01/31 04:35:27;;;;;;;2.58;1.00;;;;;;;12.98;46.14;100004.63;5112002;28;20519;-59
2023/01/31 04:37:55;;;;;;;3.47;1.05;;;;;;;12.97;46.04;99997.56;5111938;28;20044;-61
2023/01/31 04:40:23;;;;;;;2.38;1.20;;;;;;;12.98;46.10;100020.69;5112148;28;20389;-59
2023/01/31 04:42:51;;;;;;;2.20;1.00;;;;;;;13.02;46.24;100011.44;5115219;28;20044;-61
2023/01/31 04:45:21;;;;;;;2.08;1.00;;;;;;;13.08;46.32;100011.00;5116036;28;20402;-60
2023/01/31 04:47:49;;;;;;;2.10;0.80;;;;;;;13.17;46.33;100018.34;5116055;28;20049;-60
2023/01/31 04:50:18;;;;;;;1.15;0.65;;;;;;;13.25;46.16;100008.91;5115944;28;20051;-60
2023/01/31 04:52:49;;;;;;;2.00;0.88;;;;;;;13.31;45.87;100016.47;5115939;28;20050;-59
2023/01/31 04:55:18;;;;;;;1.65;0.80;;;;;;;13.35;45.83;100021.50;5115912;28;20055;-60
2023/01/31 04:57:46;;;;;;;3.10;0.80;;;;;;;13.39;45.96;100032.84;5115913;28;20079;-61
2023/01/31 05:00:15;;;;;;;1.42;0.70;;;;;;;13.49;45.78;100059.78;5115714;28;20039;-59
2023/01/31 05:02:45;;;;;;;2.88;0.90;;;;;;;13.54;45.63;100061.16;5115839;28;20105;-58
2023/01/31 05:05:13;;;;;;;1.10;0.65;;;;;;;13.63;45.60;100055.09;5115789;28;20047;-59
2023/01/31 05:07:41;;;;;;;2.03;0.88;;;;;;;13.69;45.63;100072.53;5115668;28;20047;-59
2023/01/31 05:10:11;;;;;;;1.98;0.88;;;;;;;13.74;45.39;100073.91;5115597;28;20048;-61
2023/01/31 05:12:39;;;;;;;1.92;0.90;;;;;;;13.83;45.49;100085.75;5115720;28;20077;-60
2023/01/31 05:15:09;;;;;;;1.45;0.80;;;;;;;13.89;45.32;100071.88;5115409;28;20116;-60
2023/01/31 05:17:38;;;;;;;2.05;0.93;;;;;;;13.99;45.29;100080.94;5115476;28;20089;-60
2023/01/31 05:20:09;;;;;;;2.40;1.10;;;;;;;14.08;45.36;100073.97;5115531;28;20497;-61
2023/01/31 05:22:39;;;;;;;1.05;0.63;;;;;;;14.14;45.35;100068.16;5115559;28;20048;-60
2023/01/31 05:25:08;;;;;;;1.38;0.73;;;;;;;14.17;45.37;100062.53;5115372;28;20054;-59
2023/01/31 05:27:36;;;;;;;1.40;0.60;;;;;;;14.29;45.32;100056.22;5115208;28;20489;-61
2023/01/31 05:30:06;;;;;;;2.17;0.80;;;;;;;14.37;45.30;100070.84;5115275;28;20043;-60
2023/01/31 05:32:36;;;;;;;2.13;0.80;;;;;;;14.47;45.23;100066.50;5115133;28;20131;-58
2023/01/31 05:35:05;;;;;;;1.67;0.80;;;;;;;14.54;45.26;100059.69;5114958;28;20070;-60
2023/01/31 05:37:34;;;;;;;2.65;0.90;;;;;;;14.60;45.11;100045.78;5115106;28;20044;-59
2023/01/31 05:40:02;;;;;;;1.65;0.80;;;;;;;14.65;45.07;100051.63;5114880;28;20058;-60
2023/01/31 05:42:31;;;;;;;1.70;0.77;;;;;;;14.67;45.00;100051.50;5097266;28;20054;-60
2023/01/31 05:44:59;;;;;;;2.25;0.80;;;;;;;14.72;44.95;100047.47;5115019;28;20043;-61
2023/01/31 05:47:28;;;;;;;2.25;0.90;;;;;;;14.73;45.02;100046.50;5115033;28;20051;-60
2023/01/31 05:49:56;;;;;;;1.15;0.73;;;;;;;14.71;45.03;100051.13;5114881;28;20378;-59
2023/01/31 05:52:24;;;;;;;2.83;1.10;;;;;;;14.71;44.91;100048.44;5114658;28;20047;-61
2023/01/31 05:54:54;;;;;;;1.77;0.75;;;;;;;14.66;44.91;100055.16;5113812;28;20071;-58
2023/01/31 05:57:22;;;;;;;2.05;0.80;;;;;;;14.64;44.83;100047.22;5114862;28;20139;-61
2023/01/31 05:59:50;;;;;;;2.38;1.02;;;;;;;14.60;44.93;100054.69;5114863;27;20100;-58
2023/01/31 06:02:18;;;;;;;1.48;0.75;;;;;;;14.56;44.99;100044.28;5114615;28;20047;-59
2023/01/31 06:04:46;;;;;;;1.77;0.90;;;;;;;14.52;44.83;100049.06;5114652;28;20113;-59
2023/01/31 06:07:15;;;;;;;1.30;0.80;;;;;;;14.48;45.04;100062.88;5114410;28;20055;-60
2023/01/31 06:09:43;;;;;;;2.47;0.90;;;;;;;14.43;44.88;100048.91;5114447;28;20059;-60
2023/01/31 06:12:14;;;;;;;2.10;0.93;;;;;;;14.39;45.03;100052.81;5114517;28;20079;-61
2023/01/31 06:14:44;;;;;;;2.58;0.90;;;;;;;14.33;44.94;100057.69;5114385;28;20047;-59
2023/01/31 06:17:13;;;;;;;1.85;1.00;;;;;;;14.29;45.11;100053.56;5114184;28;20126;-60
2023/01/31 06:19:41;;;;;;;1.50;0.85;;;;;;;14.23;44.95;100063.91;5114083;28;20043;-61
2023/01/31 06:22:09;;;;;;;1.90;1.00;;;;;;;14.19;45.17;100071.34;5112563;28;20123;-58
2023/01/31 06:24:37;;;;;;;1.58;0.88;;;;;;;14.13;45.09;100074.50;5113254;28;20488;-59
2023/01/31 06:27:05;;;;;;;2.55;1.00;;;;;;;14.07;45.07;100088.38;5113209;28;20068;-57
2023/01/31 06:29:35;;;;;;;1.52;0.70;;;;;;;14.01;45.00;100081.66;5113270;28;20155;-60
2023/01/31 06:32:04;;;;;;;2.70;1.10;;;;;;;13.96;45.17;100093.69;5113453;28;20493;-58
2023/01/31 06:34:32;;;;;;;2.67;0.90;;;;;;;13.89;45.26;100109.41;5113472;28;20048;-59
2023/01/31 06:37:00;;;;;;;2.60;1.10;;;;;;;13.84;45.18;100108.91;5112561;28;20044;-59
2023/01/31 06:39:28;;;;;;;2.65;1.00;;;;;;;13.80;45.28;100111.91;5111457;28;20047;-61
2023/01/31 06:41:57;;;;;;;1.48;0.70;;;;;;;13.77;45.22;100117.53;5112452;28;20112;-60
2023/01/31 06:44:25;;;;;;;2.40;1.10;;;;;;;13.71;45.24;100119.72;5113379;28;20050;-61
2023/01/31 06:46:55;;;;;;;1.58;0.85;;;;;;;13.67;45.29;100122.72;5113092;28;20138;-61
2023/01/31 06:49:24;;;;;;;2.53;1.17;;;;;;;13.59;45.30;100128.66;5113789;28;20417;-61
2023/01/31 06:51:52;;;;;;;1.40;1.00;;;;;;;13.59;45.36;100135.84;5113632;28;20396;-60
2023/01/31 06:54:20;;;;;;;2.17;1.10;;;;;;;13.54;45.47;100141.56;5113304;28;20522;-60
2023/01/31 06:56:48;;;;;;;2.47;0.85;;;;;;;13.51;45.57;100144.47;5113426;28;20044;-60
2023/01/31 06:59:16;;;;;;;2.28;0.90;;;;;;;13.52;45.67;100142.66;5113306;28;20066;-61
2023/01/31 07:01:44;;;;;;;1.55;0.93;;;;;;;13.57;45.78;100148.50;5113448;28;20109;-60
2023/01/31 07:04:14;;;;;;;2.28;0.80;;;;;;;13.63;45.69;100146.22;5113291;28;20032;-60
2023/01/31 07:06:42;;;;;;;2.08;0.90;;;;;;;13.75;45.80;100155.19;5113207;28;20043;-60
2023/01/31 07:09:11;;;;;;;2.75;1.00;;;;;;;13.85;45.63;100153.50;5113091;28;20063;-60
2023/01/31 07:11:39;;;;;;;2.17;0.90;;;;;;;13.90;45.44;100147.81;5113213;28;20559;-59
2023/01/31 07:14:09;;;;;;;1.88;0.77;;;;;;;14.04;45.58;100156.50;5113113;28;20127;-61
2023/01/31 07:16:37;;;;;;;1.85;0.90;;;;;;;14.14;45.54;100151.31;5113025;28;20441;-59
2023/01/31 07:19:06;;;;;;;1.48;0.80;;;;;;;14.21;45.42;100157.91;5113162;28;20496;-60
2023/01/31 07:21:37;;;;;;;2.33;0.95;;;;;;;14.30;45.53;100164.41;5113069;28;20455;-59
2023/01/31 07:24:07;;;;;;;1.27;0.73;;;;;;;14.36;45.24;100155.88;5113028;28;20066;-60
2023/01/31 07:26:35;;;;;;;1.55;0.80;;;;;;;14.48;45.31;100178.25;5112604;28;20047;-59
2023/01/31 07:29:03;;;;;;;1.88;0.90;;;;;;;14.53;45.23;100173.38;5112867;28;20040;-59
2023/01/31 07:31:32;;;;;;;2.42;0.90;;;;;;;14.63;45.20;100182.41;5112690;28;20048;-59
2023/01/31 07:34:01;;;;;;;2.50;1.00;;;;;;;14.70;45.24;100191.72;5112519;28;20044;-60
2023/01/31 07:36:29;;;;;;;2.47;1.17;;;;;;;14.76;45.08;100199.28;5112402;28;20134;-60
2023/01/31 07:39:00;;;;;;;2.00;0.80;;;;;;;14.87;45.01;100193.09;5112755;28;20048;-60
2023/01/31 07:41:28;;;;;;;2.03;0.93;;;;;;;14.96;45.09;100207.59;5112622;28;20047;-59
2023/01/31 07:43:58;;;;;;;2.85;0.95;;;;;;;15.04;45.04;100207.84;5112594;28;20055;-61
2023/01/31 07:46:26;;;;;;;2.08;0.77;;;;;;;15.11;44.71;100211.75;5112851;28;20055;-60
2023/01/31 07:48:54;;;;;;;3.20;0.90;;;;;;;15.22;44.96;100208.22;5112665;28;20044;-60
2023/01/31 07:51:23;;;;;;;2.03;0.90;;;;;;;15.31;44.83;100213.69;5112147;28;20054;-60
2023/01/31 07:53:51;;;;;;;3.08;0.85;;;;;;;15.35;44.72;100209.81;5112343;28;20400;-60
2023/01/31 07:56:21;;;;;;;2.15;0.93;;;;;;;15.40;44.71;100212.97;5112492;28;20056;-61
2023/01/31 07:58:50;;;;;;;2.42;0.90;;;;;;;15.45;44.56;100221.53;5112464;28;20046;-60
2023/01/31 08:04:08;;;;;;;2.20;0.93;;;;;;;15.49;44.50;100213.19;5112393;28;20468;-60
2023/01/31 08:06:50;;;;;;;2.70;0.90;;;;;;;15.46;44.42;100220.53;5112390;28;20496;-59
2023/01/31 08:09:18;;;;;;;1.70;1.00;;;;;;;15.44;44.43;100230.56;5112032;28;20056;-60
2023/01/31 08:11:48;;;;;;;2.10;1.00;;;;;;;15.41;44.50;100241.53;5112256;28;20047;-60
2023/01/31 08:14:16;;;;;;;2.65;1.02;;;;;;;15.39;44.53;100246.19;5112257;28;20048;-60
2023/01/31 08:16:45;;;;;;;2.22;1.00;;;;;;;15.35;44.40;100251.97;5111648;28;20553;-60
2023/01/31 08:19:14;;;;;;;1.95;0.90;;;;;;;15.32;44.57;100258.41;5112093;28;20104;-60
2023/01/31 08:21:42;;;;;;;2.78;1.13;;;;;;;15.28;44.51;100269.53;5112377;28;20134;-58
2023/01/31 08:24:10;;;;;;;2.45;0.80;;;;;;;15.21;44.61;100269.16;5112003;28;20047;-59
2023/01/31 08:26:38;;;;;;;1.88;0.98;;;;;;;15.18;44.64;100272.09;5111960;28;20044;-59
2023/01/31 08:29:08;;;;;;;1.38;0.70;;;;;;;15.13;44.42;100282.34;5112279;28;20043;-60
2023/01/31 08:31:36;;;;;;;2.45;0.90;;;;;;;15.08;44.47;100282.72;5112239;28;20476;-59
2023/01/31 08:34:07;;;;;;;2.35;1.00;;;;;;;15.00;44.46;100293.19;5111856;28;20040;-61
2023/01/31 08:36:35;;;;;;;1.77;1.00;;;;;;;14.98;44.53;100292.47;5111922;28;20046;-60
2023/01/31 08:39:04;;;;;;;2.72;1.02;;;;;;;14.95;44.51;100313.31;5112050;28;20062;-59
2023/01/31 08:41:34;;;;;;;3.83;1.42;;;;;;;14.89;44.52;100307.47;5111904;28;20176;-60
2023/01/31 08:44:03;;;;;;;2.33;0.90;;;;;;;14.83;44.58;100326.72;5111829;28;20497;-60
2023/01/31 08:46:35;;;;;;;3.10;1.00;;;;;;;14.78;44.62;100328.91;5111911;28;20137;-59
2023/01/31 08:49:05;;;;;;;1.88;0.95;;;;;;;14.73;44.70;100338.28;5111889;28;20074;-59
2023/01/31 08:51:34;;;;;;;1.85;0.90;;;;;;;14.67;44.82;100330.69;5111761;28;20043;-60
2023/01/31 08:54:03;;;;;;;1.80;0.65;;;;;;;14.61;44.82;100326.66;5111761;28;20115;-60
2023/01/31 08:56:31;;;;;;;1.73;1.00;;;;;;;14.55;44.97;100333.31;5111584;28;20047;-60
2023/01/31 08:58:59;;;;;;;2.05;0.90;;;;;;;14.51;45.05;100341.75;5111907;28;20047;-59
2023/01/31 09:01:27;;;;;;;2.25;1.08;;;;;;;14.47;45.03;100356.34;5112013;28;20075;-60
2023/01/31 09:03:57;;;;;;;2.40;0.85;;;;;;;14.43;44.98;100341.41;5111535;28;20044;-61
2023/01/31 09:06:27;;;;;;;1.88;0.80;;;;;;;14.39;44.94;100331.91;5111670;28;20066;-59
2023/01/31 09:08:57;;;;;;;3.00;0.95;;;;;;;14.36;45.03;100345.53;5111123;28;20071;-59
2023/01/31 09:11:28;;;;;;;2.30;1.05;;;;;;;14.30;45.09;100355.75;5111220;28;20055;-58
2023/01/31 09:13:58;;;;;;;2.47;0.90;;;;;;;14.27;45.14;100353.28;5111443;28;20055;-58
2023/01/31 09:16:26;;;;;;;3.08;1.02;;;;;;;14.23;45.24;100359.84;5111072;28;20048;-61
2023/01/31 09:18:57;;;;;;;3.35;1.00;;;;;;;14.22;45.05;100357.28;5111307;28;20473;-61
2023/01/31 09:21:25;;;;;;;2.10;0.90;;;;;;;14.20;45.01;100361.91;5111172;28;20119;-61
2023/01/31 09:23:58;;;;;;;1.73;1.00;;;;;;;14.17;45.02;100365.66;5111166;28;20043;-59
2023/01/31 09:26:26;;;;;;;3.10;0.98;;;;;;;14.16;44.93;100363.94;5111175;28;20070;-60
2023/01/31 09:28:54;;;;;;;1.90;0.90;;;;;;;14.12;45.01;100361.63;5112658;28;20576;-60
2023/01/31 09:31:23;;;;;;;2.83;1.05;;;;;;;14.08;45.27;100363.66;5114687;28;20040;-59
2023/01/31 09:33:51;;;;;;;2.63;0.93;;;;;;;14.09;45.30;100361.81;5114752;28;20053;-59
2023/01/31 09:36:22;;;;;;;3.42;0.90;;;;;;;14.08;45.15;100377.06;5114429;28;20081;-59
2023/01/31 09:38:54;;;;;;;2.88;0.90;;;;;;;14.04;45.23;100360.34;5114764;28;20039;-61
2023/01/31 09:41:28;;;;;;;1.80;0.95;;;;;;;13.99;45.34;100348.22;5114678;28;20089;-59
2023/01/31 09:44:01;;;;;;;3.15;1.00;;;;;;;14.01;45.28;100373.13;5114625;28;20510;-59
2023/01/31 09:46:35;;;;;;;2.50;1.10;;;;;;;14.03;45.35;100360.47;5114579;28;20064;-59
2023/01/31 09:49:08;;;;;;;1.95;0.98;;;;;;;14.02;45.38;100373.00;5114394;28;20086;-60
2023/01/31 09:51:39;;;;;;;2.83;0.88;;;;;;;14.03;45.28;100368.50;5114427;28;20047;-59
2023/01/31 09:54:20;;;;;;;2.08;1.05;;;;;;;14.05;45.46;100366.56;5114166;28;20518;-59
2023/01/31 09:57:00;;;;;;;2.00;0.98;;;;;;;14.04;45.54;100362.16;5114229;28;20412;-60
2023/01/31 09:59:38;;;;;;;2.25;1.00;;;;;;;14.03;45.48;100372.03;5114860;28;20046;-60
2023/01/31 10:02:25;;;;;;;1.77;0.80;;;;;;;14.00;45.27;100379.47;5114402;28;20100;-59
2023/01/31 10:05:06;;;;;;;3.40;1.08;;;;;;;13.97;45.06;100379.66;5114071;28;20489;-61
2023/01/31 10:07:41;;;;;;;2.03;0.70;;;;;;;13.96;45.10;100375.28;5113688;28;20492;-59
2023/01/31 10:10:17;;;;;;;2.78;1.00;;;;;;;13.97;45.21;100376.97;5113365;28;20572;-59
2023/01/31 10:12:50;;;;;;;3.25;1.25;;;;;;;13.96;45.51;100384.16;5113598;28;20500;-59
2023/01/31 10:15:26;;;;;;;3.00;1.10;;;;;;;13.99;45.59;100377.72;5114025;28;20400;-59
2023/01/31 10:17:59;;;;;;;1.98;1.02;;;;;;;14.03;45.73;100388.13;5113787;28;20071;-59
2023/01/31 10:20:35;;;;;;;2.43;0.90;;;;;;;14.08;46.04;100377.06;5113647;28;20044;-60
2023/01/31 10:23:11;;;;;;;2.47;0.93;;;;;;;14.15;45.89;100372.09;5113948;28;20481;-61
2023/01/31 10:25:48;;;;;;;1.95;0.73;;;;;;;14.13;45.60;100374.91;5113752;28;20048;-60
2023/01/31 10:28:20;;;;;;;2.85;1.05;;;;;;;14.19;45.74;100371.78;5114304;28;20067;-61
2023/01/31 10:30:56;;;;;;;2.30;0.90;;;;;;;14.24;45.67;100374.13;5113663;28;20054;-61
2023/01/31 10:33:35;;;;;;;2.38;0.90;;;;;;;14.28;45.37;100387.22;5113612;28;20138;-63
2023/01/31 10:36:11;;;;;;;2.60;1.10;;;;;;;14.37;45.36;100371.38;5113384;28;20055;-59
2023/01/31 10:38:52;;;;;;;3.60;1.10;;;;;;;14.40;44.98;100377.41;5113394;28;20043;-59
2023/01/31 10:41:36;;;;;;;1.95;0.90;;;;;;;14.38;44.67;100378.47;5113272;28;20054;-59
2023/01/31 10:44:13;;;;;;;2.60;1.10;;;;;;;14.37;44.86;100376.75;5113199;28;20458;-59
2023/01/31 10:46:41;;;;;;;1.92;0.73;;;;;;;14.41;44.78;100375.56;5113298;28;20044;-60
2023/01/31 10:49:10;;;;;;;1.98;0.82;;;;;;;14.39;44.82;100374.84;5113103;28;20055;-59
2023/01/31 10:51:55;;;;;;;2.03;0.93;;;;;;;14.41;44.75;100371.06;5113101;28;20082;-59
2023/01/31 10:54:41;;;;;;;1.90;0.95;;;;;;;14.38;44.67;100375.78;5113428;28;20086;-59
2023/01/31 10:57:09;;;;;;;2.60;0.77;;;;;;;14.35;44.74;100363.44;5112920;28;20480;-61
2023/01/31 10:59:40;;;;;;;3.80;0.90;;;;;;;14.40;44.70;100360.44;5113081;28;20513;-61
2023/01/31 11:02:19;;;;;;;2.75;1.10;;;;;;;14.46;44.75;100354.63;5112777;28;20051;-60
2023/01/31 11:04:51;;;;;;;2.15;0.93;;;;;;;14.46;44.86;100360.84;5113158;28;20055;-60
2023/01/31 11:07:20;;;;;;;2.08;0.90;;;;;;;14.51;44.86;100347.09;5112916;28;20043;-60
2023/01/31 11:09:52;;;;;;;2.42;0.90;;;;;;;14.53;44.83;100347.84;5113063;28;20113;-60
2023/01/31 11:12:21;;;;;;;2.72;1.20;;;;;;;14.56;44.80;100339.53;5112750;28;20131;-60
2023/01/31 11:15:06;;;;;;;2.25;1.02;;;;;;;14.59;44.97;100344.72;5112747;28;20377;-60
2023/01/31 11:17:37;;;;;;;1.45;0.80;;;;;;;14.59;44.99;100339.34;5112709;28;20047;-60
2023/01/31 11:20:06;;;;;;;3.25;1.20;;;;;;;14.60;45.10;100338.38;5112993;28;20062;-60
2023/01/31 11:22:37;;;;;;;2.33;1.08;;;;;;;14.64;45.19;100339.84;5112679;28;20055;-60
2023/01/31 11:25:07;;;;;;;3.17;0.90;;;;;;;14.65;45.26;100336.16;5112714;28;20047;-60
2023/01/31 11:27:39;;;;;;;3.28;1.20;;;;;;;14.67;45.26;100323.50;5112632;28;20112;-60
2023/01/31 11:30:21;;;;;;;1.88;0.95;;;;;;;14.69;45.34;100321.56;5112691;28;20043;-60
2023/01/31 11:32:50;;;;;;;2.63;1.08;;;;;;;14.73;45.41;100333.75;5112518;28;20040;-60
2023/01/31 11:35:24;;;;;;;2.83;1.00;;;;;;;14.77;45.35;100321.84;5112349;28;20097;-60
2023/01/31 11:37:54;;;;;;;1.67;0.93;;;;;;;14.80;45.56;100331.47;5112359;28;20404;-61
2023/01/31 11:40:29;;;;;;;2.25;0.80;;;;;;;14.83;45.54;100329.41;5112300;28;20044;-59
2023/01/31 11:42:59;;;;;;;1.73;0.75;;;;;;;14.87;45.38;100338.94;5112191;28;20043;-59
2023/01/31 11:45:36;;;;;;;2.47;0.98;;;;;;;14.88;45.59;100312.94;5112134;28;20078;-59
2023/01/31 11:48:16;;;;;;;2.72;0.90;;;;;;;14.94;45.45;100315.16;5111736;28;20047;-59
2023/01/31 11:50:46;;;;;;;2.08;0.88;;;;;;;14.98;45.42;100318.47;5111594;28;20080;-59
2023/01/31 11:53:19;;;;;;;2.28;0.80;;;;;;;15.00;45.50;100313.81;5111851;28;20055;-60
2023/01/31 11:55:50;;;;;;;2.28;1.00;;;;;;;15.02;45.36;100307.34;5112014;28;20459;-60
2023/01/31 11:58:21;;;;;;;3.30;1.20;;;;;;;15.05;45.57;100309.78;5111826;28;20047;-60